Ziguinchor, Senegal
Current Conditions -  °F | °C
As of 2:00 PM on Thursday 29 Jan 2015 (Local Time) from GOGG Reporting Station
Clear Clear  
Wind Chill: 33°   Ceiling: Unl
Heat Index: 33°   Visibility: 4mi
Dew Point:   Wind: 7mph
Humidity: 13%   Direction: 30°NNE
Pressure: 29.88"   Gusts: NA
Location:  12.59°N, 16.29°W
Report Text: GOGG 291400Z 03006KT 7000 NSC 33/01 Q1012
Loading
Personal Weather Stations






























Interactive Weather Map New forecast layout! Learn more

10-Day Weather Forecast

Advertisements
Track Severe Weather on mobile